Terminal Aerodrome Forecast
Issued by NWS

Home | Current Version | Previous Version | Text Only | Print | Product List | Glossary On
Versions: 1 2 3 4 5 6 7 8 9 10 11 12
000
FTUS45 KREV 290520
TAFTRK
TAF
KTRK 290520Z 2906/3006 VRB03KT P6SM SKC
     FM292200 22009KT P6SM SCT080 SCT180
     FM300100 26006KT P6SM FEW080 BKN180
     FM300400 VRB03KT P6SM SCT180=

USA.gov is the U.S. government's official web portal to all federal, state and local government web resources and services.